Time;durP1;ratioP1;P1;durP2;ratioP2;P2;SDS_P1;SDS_P2;PMS_P1;PMS_P2;Temp;Humidity;BMP_temperature;BMP_pressure;BME280_temperature;BME280_humidity;BME280_pressure;Samples;Min_cycle;Max_cycle;Signal;HPM_P1;HPM_P2
2022/06/27 00:00:41;;;;;;;2.83;1.60;;;;;;;;;;5030707;28;20462;-70
2022/06/27 00:03:07;;;;;;;2.10;1.50;;;;;;;;;;5029850;28;20374;-71
2022/06/27 00:05:32;;;;;;;1.95;1.50;;;;;;;;;;5030279;28;20537;-70
2022/06/27 00:07:57;;;;;;;1.65;1.42;;;;;;;;;;5012043;28;20441;-71
2022/06/27 00:10:23;;;;;;;2.83;1.45;;;;;;;;;;5011936;28;20450;-72
2022/06/27 00:12:49;;;;;;;2.53;1.52;;;;;;;;;;5029551;28;20476;-70
2022/06/27 00:15:15;;;;;;;2.42;1.52;;;;;;;;;;5030453;28;20405;-70
2022/06/27 00:17:40;;;;;;;2.35;1.60;;;;;;;;;;5030675;28;20023;-70
2022/06/27 00:20:06;;;;;;;2.05;1.38;;;;;;;;;;5029786;28;20431;-71
2022/06/27 00:22:31;;;;;;;3.40;1.65;;;;;;;;;;5011630;28;20042;-70
2022/06/27 00:24:57;;;;;;;3.88;1.35;;;;;;;;;;5030872;28;20407;-70
2022/06/27 00:27:22;;;;;;;1.50;1.40;;;;;;;;;;5029401;28;20375;-70
2022/06/27 00:29:48;;;;;;;1.98;1.52;;;;;;;;;;5011449;28;20495;-71
2022/06/27 00:32:13;;;;;;;1.95;1.25;;;;;;;;;;5011517;28;20399;-70
2022/06/27 00:34:39;;;;;;;2.42;1.45;;;;;;;;;;4994685;28;20438;-71
2022/06/27 00:37:05;;;;;;;1.67;1.30;;;;;;;;;;5011436;28;20164;-71
2022/06/27 00:39:30;;;;;;;1.85;1.33;;;;;;;;;;5030127;28;20069;-70
2022/06/27 00:41:56;;;;;;;2.22;1.40;;;;;;;;;;5029604;28;20343;-70
2022/06/27 00:44:34;;;;;;;2.60;1.38;;;;;;;;;;5029772;28;20123;-71
2022/06/27 00:47:01;;;;;;;2.45;1.30;;;;;;;;;;5030589;28;20536;-70
2022/06/27 00:49:27;;;;;;;1.48;1.20;;;;;;;;;;5030000;28;20201;-70
2022/06/27 00:51:52;;;;;;;1.92;1.38;;;;;;;;;;5029094;28;20056;-70
2022/06/27 00:54:18;;;;;;;2.67;1.50;;;;;;;;;;5030493;28;20423;-70
2022/06/27 00:56:44;;;;;;;1.67;1.42;;;;;;;;;;5011134;28;20024;-71
2022/06/27 00:59:09;;;;;;;2.58;1.48;;;;;;;;;;5011466;28;20039;-70
2022/06/27 01:01:35;;;;;;;2.15;1.38;;;;;;;;;;5018886;28;20454;-70
2022/06/27 01:04:01;;;;;;;1.70;1.20;;;;;;;;;;5026521;28;20429;-70
2022/06/27 01:06:30;;;;;;;1.63;1.25;;;;;;;;;;5011052;28;20411;-71
2022/06/27 01:08:55;;;;;;;2.17;1.60;;;;;;;;;;5010827;28;20032;-70
2022/06/27 01:11:21;;;;;;;1.73;1.38;;;;;;;;;;5010758;28;20055;-72
2022/06/27 01:13:47;;;;;;;1.65;1.30;;;;;;;;;;4994405;28;20096;-70
2022/06/27 01:16:13;;;;;;;2.78;1.15;;;;;;;;;;5029219;28;20342;-71
2022/06/27 01:18:39;;;;;;;1.52;1.23;;;;;;;;;;5010984;28;20464;-71
2022/06/27 01:21:06;;;;;;;2.35;1.58;;;;;;;;;;5027503;28;20344;-70
2022/06/27 01:23:34;;;;;;;1.20;1.00;;;;;;;;;;5010521;28;20487;-71
2022/06/27 01:26:00;;;;;;;2.45;1.50;;;;;;;;;;5028704;28;20361;-70
2022/06/27 01:28:25;;;;;;;1.70;1.20;;;;;;;;;;5028380;28;20417;-70
2022/06/27 01:30:51;;;;;;;1.55;1.20;;;;;;;;;;5010682;28;20075;-70
2022/06/27 01:33:16;;;;;;;1.40;1.05;;;;;;;;;;5010720;28;20114;-71
2022/06/27 01:35:42;;;;;;;1.48;1.20;;;;;;;;;;5029668;28;20531;-71
2022/06/27 01:38:07;;;;;;;2.08;1.48;;;;;;;;;;5029896;28;20498;-70
2022/06/27 01:40:33;;;;;;;1.70;1.38;;;;;;;;;;5028709;28;20340;-70
2022/06/27 01:42:59;;;;;;;1.80;1.30;;;;;;;;;;5010289;28;20374;-72
2022/06/27 01:45:24;;;;;;;1.80;1.38;;;;;;;;;;5028450;28;20349;-70
2022/06/27 01:47:50;;;;;;;2.17;1.40;;;;;;;;;;5028775;28;20324;-70
2022/06/27 01:50:18;;;;;;;1.58;1.33;;;;;;;;;;5028407;28;20434;-70
2022/06/27 01:52:47;;;;;;;2.00;1.40;;;;;;;;;;5010374;28;20370;-70
2022/06/27 01:55:12;;;;;;;1.55;1.30;;;;;;;;;;5028787;28;20525;-71
2022/06/27 01:57:38;;;;;;;1.85;1.25;;;;;;;;;;5010077;28;20430;-70
2022/06/27 02:00:06;;;;;;;6.35;1.70;;;;;;;;;;5028147;28;20342;-70
2022/06/27 02:02:33;;;;;;;2.03;1.45;;;;;;;;;;5010717;28;20403;-70
2022/06/27 02:04:58;;;;;;;1.88;1.52;;;;;;;;;;5009901;28;20028;-70
2022/06/27 02:07:23;;;;;;;2.25;1.50;;;;;;;;;;5010526;28;20093;-72
2022/06/27 02:09:49;;;;;;;1.88;1.15;;;;;;;;;;5029639;28;20032;-71
2022/06/27 02:12:22;;;;;;;1.70;1.23;;;;;;;;;;5030238;28;20424;-71
2022/06/27 02:14:53;;;;;;;2.75;1.30;;;;;;;;;;5011676;28;20328;-71
2022/06/27 02:17:19;;;;;;;2.47;1.50;;;;;;;;;;5028290;28;20445;-71
2022/06/27 02:19:45;;;;;;;2.10;1.48;;;;;;;;;;5123491;22;20347;-63
2022/06/27 02:22:11;;;;;;;3.78;1.27;;;;;;;;;;4981796;28;20358;-63
2022/06/27 02:24:37;;;;;;;1.70;1.20;;;;;;;;;;4988451;28;20112;-62
2022/06/27 02:27:03;;;;;;;1.67;1.30;;;;;;;;;;4988023;28;20504;-62
2022/06/27 02:29:28;;;;;;;1.55;1.10;;;;;;;;;;4987631;28;20439;-63
2022/06/27 02:31:54;;;;;;;1.58;1.13;;;;;;;;;;4987791;28;20439;-62
2022/06/27 02:34:19;;;;;;;1.83;1.25;;;;;;;;;;4987611;28;20048;-62
2022/06/27 02:36:47;;;;;;;4.32;1.30;;;;;;;;;;4987544;28;20500;-62
2022/06/27 02:39:16;;;;;;;1.97;1.50;;;;;;;;;;4986358;28;20446;-63
2022/06/27 02:41:42;;;;;;;1.50;1.10;;;;;;;;;;4989387;28;20394;-62
2022/06/27 02:44:11;;;;;;;1.85;1.38;;;;;;;;;;4989741;28;20454;-62
2022/06/27 02:46:40;;;;;;;1.98;1.42;;;;;;;;;;4991344;28;20317;-66
2022/06/27 02:49:06;;;;;;;3.65;1.45;;;;;;;;;;4991528;28;20521;-62
2022/06/27 02:51:41;;;;;;;2.38;1.45;;;;;;;;;;4991481;28;20434;-63
2022/06/27 02:54:20;;;;;;;2.25;1.30;;;;;;;;;;4993018;28;20445;-66
2022/06/27 02:56:47;;;;;;;;;;;;;;;;;;4991049;28;20462;-62
2022/06/27 02:59:34;;;;;;;1.50;1.08;;;;;;;;;;4973211;28;20223;-62
2022/06/27 03:02:00;;;;;;;2.08;1.20;;;;;;;;;;4991666;28;20442;-62
2022/06/27 03:04:26;;;;;;;2.50;1.48;;;;;;;;;;4989615;28;20029;-62
2022/06/27 03:06:51;;;;;;;2.42;1.45;;;;;;;;;;4991002;28;20465;-62
2022/06/27 03:09:17;;;;;;;2.28;1.40;;;;;;;;;;4972645;28;20505;-63
2022/06/27 03:11:46;;;;;;;1.52;1.23;;;;;;;;;;4991637;28;20406;-62
2022/06/27 03:14:11;;;;;;;1.73;1.27;;;;;;;;;;4990861;28;20509;-62
2022/06/27 03:16:37;;;;;;;1.58;1.42;;;;;;;;;;4990777;28;20474;-63
2022/06/27 03:19:03;;;;;;;1.98;1.50;;;;;;;;;;4972831;28;20438;-62
2022/06/27 03:21:28;;;;;;;2.20;1.48;;;;;;;;;;4990006;28;20053;-62
2022/06/27 03:23:54;;;;;;;2.08;1.33;;;;;;;;;;4991675;28;20048;-62
2022/06/27 03:26:19;;;;;;;2.70;1.60;;;;;;;;;;4990520;28;20539;-62
2022/06/27 03:28:46;;;;;;;1.65;1.35;;;;;;;;;;4990424;28;20462;-62
2022/06/27 03:31:11;;;;;;;2.55;1.48;;;;;;;;;;4991857;28;20415;-62
2022/06/27 03:33:37;;;;;;;1.60;1.40;;;;;;;;;;4990085;28;20508;-62
2022/06/27 03:36:03;;;;;;;2.28;1.40;;;;;;;;;;4989855;28;20382;-63
2022/06/27 03:38:28;;;;;;;3.03;1.58;;;;;;;;;;4990436;28;20076;-62
2022/06/27 03:40:54;;;;;;;2.33;1.83;;;;;;;;;;4990120;28;20111;-62
2022/06/27 03:43:19;;;;;;;2.45;1.40;;;;;;;;;;4987757;28;20485;-62
2022/06/27 03:45:45;;;;;;;2.25;1.38;;;;;;;;;;4989942;28;20359;-63
2022/06/27 03:50:00;;;;;;;1.45;1.30;;;;;;;;;;4989941;28;20405;-63
2022/06/27 03:50:56;;;;;;;1.88;1.30;;;;;;;;;;4989707;28;20473;-63
2022/06/27 03:53:21;;;;;;;2.75;1.20;;;;;;;;;;4991157;28;20431;-65
2022/06/27 03:55:46;;;;;;;1.63;1.23;;;;;;;;;;4992023;28;20377;-62
2022/06/27 03:58:12;;;;;;;2.25;1.30;;;;;;;;;;4990348;28;20521;-66
2022/06/27 04:00:38;;;;;;;2.42;1.80;;;;;;;;;;4989908;28;20032;-63
2022/06/27 04:03:03;;;;;;;2.47;1.30;;;;;;;;;;4989808;28;20047;-62
2022/06/27 04:05:28;;;;;;;1.65;1.25;;;;;;;;;;4989536;28;20091;-62
2022/06/27 04:07:54;;;;;;;1.85;1.45;;;;;;;;;;4989471;28;20504;-63
2022/06/27 04:10:19;;;;;;;2.63;1.10;;;;;;;;;;4990323;28;20421;-62
2022/06/27 04:12:45;;;;;;;1.80;1.40;;;;;;;;;;4989816;28;20417;-62
2022/06/27 04:15:10;;;;;;;2.22;1.38;;;;;;;;;;4990102;28;20431;-63
2022/06/27 04:17:36;;;;;;;3.45;1.80;;;;;;;;;;4989709;28;20347;-63
2022/06/27 04:20:03;;;;;;;2.10;1.38;;;;;;;;;;4990327;28;20099;-62
2022/06/27 04:22:28;;;;;;;1.85;1.40;;;;;;;;;;4989506;28;20072;-62
2022/06/27 04:24:55;;;;;;;2.85;1.40;;;;;;;;;;4989833;28;20025;-63
2022/06/27 04:27:21;;;;;;;1.90;1.27;;;;;;;;;;4990466;28;20400;-62
2022/06/27 04:29:48;;;;;;;1.38;1.20;;;;;;;;;;4989507;28;20107;-64
2022/06/27 04:32:15;;;;;;;2.47;1.55;;;;;;;;;;4989108;28;20346;-62
2022/06/27 04:34:41;;;;;;;2.25;1.42;;;;;;;;;;4988676;28;20410;-63
2022/06/27 04:37:06;;;;;;;1.85;1.40;;;;;;;;;;4991273;28;20419;-62
2022/06/27 04:39:32;;;;;;;1.77;1.20;;;;;;;;;;4989405;28;20410;-62
2022/06/27 04:41:58;;;;;;;2.05;1.40;;;;;;;;;;4989808;28;20342;-62
2022/06/27 04:44:23;;;;;;;2.42;1.45;;;;;;;;;;4990287;28;20366;-63
2022/06/27 04:46:49;;;;;;;4.13;1.50;;;;;;;;;;4989586;28;20442;-64
2022/06/27 04:49:19;;;;;;;2.33;1.40;;;;;;;;;;4989374;28;20358;-62
2022/06/27 04:51:45;;;;;;;1.92;1.63;;;;;;;;;;4989847;28;20517;-62
2022/06/27 04:54:11;;;;;;;2.10;1.65;;;;;;;;;;4989725;28;20435;-63
2022/06/27 04:56:43;;;;;;;2.63;1.20;;;;;;;;;;4989643;28;20390;-62
2022/06/27 04:59:09;;;;;;;2.88;1.48;;;;;;;;;;4989783;28;20029;-63
2022/06/27 05:01:35;;;;;;;3.38;1.35;;;;;;;;;;4989972;28;20326;-63
2022/06/27 05:04:01;;;;;;;1.55;1.42;;;;;;;;;;4988460;28;20525;-62
2022/06/27 05:06:26;;;;;;;2.13;1.35;;;;;;;;;;4989322;28;20426;-63
2022/06/27 05:08:52;;;;;;;1.52;1.30;;;;;;;;;;4990610;28;20020;-62
2022/06/27 05:11:17;;;;;;;2.42;1.40;;;;;;;;;;4990147;28;20033;-62
2022/06/27 05:13:42;;;;;;;3.30;1.30;;;;;;;;;;4989084;28;20427;-63
2022/06/27 05:16:08;;;;;;;2.65;1.65;;;;;;;;;;4989395;28;20320;-63
2022/06/27 05:18:33;;;;;;;2.45;1.65;;;;;;;;;;4987706;28;20382;-62
2022/06/27 05:20:59;;;;;;;2.45;1.40;;;;;;;;;;4988613;28;20457;-65
2022/06/27 05:23:24;;;;;;;1.83;1.40;;;;;;;;;;4990057;28;20355;-62
2022/06/27 05:25:50;;;;;;;2.47;1.75;;;;;;;;;;4971108;28;20044;-63
2022/06/27 05:28:16;;;;;;;2.60;1.60;;;;;;;;;;4989294;28;20048;-63
2022/06/27 05:30:41;;;;;;;5.10;1.92;;;;;;;;;;4967512;28;20439;-62
2022/06/27 05:33:07;;;;;;;1.77;1.38;;;;;;;;;;4989352;28;21130;-62
2022/06/27 05:35:32;;;;;;;1.67;1.30;;;;;;;;;;4989043;28;20060;-62
2022/06/27 05:37:59;;;;;;;1.65;1.30;;;;;;;;;;4988750;28;20390;-63
2022/06/27 05:40:25;;;;;;;2.80;1.73;;;;;;;;;;4987701;28;20378;-63
2022/06/27 05:42:51;;;;;;;5.88;1.50;;;;;;;;;;4989743;28;20025;-63
2022/06/27 05:45:16;;;;;;;2.28;1.40;;;;;;;;;;4989759;28;20490;-62
2022/06/27 05:47:43;;;;;;;1.50;1.20;;;;;;;;;;4988998;28;20415;-62
2022/06/27 05:50:09;;;;;;;2.75;1.38;;;;;;;;;;4988919;28;20524;-62
2022/06/27 05:52:37;;;;;;;1.83;1.30;;;;;;;;;;4989141;28;20308;-63
2022/06/27 05:55:02;;;;;;;1.65;1.50;;;;;;;;;;4989158;28;20427;-63
2022/06/27 05:57:28;;;;;;;1.33;1.15;;;;;;;;;;4988994;28;20410;-63
2022/06/27 05:59:55;;;;;;;1.92;1.50;;;;;;;;;;4989234;28;20028;-64
2022/06/27 06:02:25;;;;;;;1.67;1.23;;;;;;;;;;4988557;28;20432;-63
2022/06/27 06:04:53;;;;;;;2.38;1.35;;;;;;;;;;4988957;28;20358;-62
2022/06/27 06:07:22;;;;;;;2.05;1.45;;;;;;;;;;4971219;28;20339;-63
2022/06/27 06:09:49;;;;;;;4.70;1.75;;;;;;;;;;4988941;28;20343;-62
2022/06/27 06:12:16;;;;;;;2.80;1.58;;;;;;;;;;4990021;28;20033;-63
2022/06/27 06:14:43;;;;;;;1.45;1.35;;;;;;;;;;4989272;28;20429;-62
2022/06/27 06:17:09;;;;;;;1.50;1.23;;;;;;;;;;4993332;28;20316;-62
2022/06/27 06:19:35;;;;;;;2.67;1.45;;;;;;;;;;4992575;28;20359;-63
2022/06/27 06:22:00;;;;;;;3.28;1.70;;;;;;;;;;4992131;28;20375;-63
2022/06/27 06:24:26;;;;;;;1.90;1.48;;;;;;;;;;4992911;28;20367;-63
2022/06/27 06:26:56;;;;;;;2.45;1.65;;;;;;;;;;4992566;28;20438;-63
2022/06/27 06:29:22;;;;;;;1.65;1.38;;;;;;;;;;4992512;28;20423;-62
2022/06/27 06:31:48;;;;;;;3.83;1.67;;;;;;;;;;4992415;28;20397;-62
2022/06/27 06:34:14;;;;;;;1.70;1.50;;;;;;;;;;4992514;28;20316;-62
2022/06/27 06:36:41;;;;;;;2.80;1.45;;;;;;;;;;4993265;28;20407;-62
2022/06/27 06:39:07;;;;;;;1.90;1.40;;;;;;;;;;4992395;28;20429;-62
2022/06/27 06:41:33;;;;;;;2.05;1.48;;;;;;;;;;4992423;28;20108;-64
2022/06/27 06:43:59;;;;;;;2.08;1.30;;;;;;;;;;4973938;28;20493;-63
2022/06/27 06:46:26;;;;;;;2.10;1.25;;;;;;;;;;4974491;28;20597;-63
2022/06/27 06:49:05;;;;;;;1.85;1.42;;;;;;;;;;4991788;28;20498;-65
2022/06/27 06:51:34;;;;;;;6.47;2.08;;;;;;;;;;4991848;28;20512;-64
2022/06/27 06:54:03;;;;;;;2.53;1.70;;;;;;;;;;4991826;28;20412;-63
2022/06/27 06:56:30;;;;;;;3.55;1.25;;;;;;;;;;4992348;28;20416;-63
2022/06/27 06:58:57;;;;;;;2.88;1.40;;;;;;;;;;4992555;28;20477;-64
2022/06/27 07:01:22;;;;;;;1.88;1.40;;;;;;;;;;4974233;28;20370;-62
2022/06/27 07:03:49;;;;;;;2.30;1.70;;;;;;;;;;4992561;28;20325;-63
2022/06/27 07:06:15;;;;;;;1.88;1.30;;;;;;;;;;4993453;28;20462;-63
2022/06/27 07:08:41;;;;;;;4.30;1.30;;;;;;;;;;4991893;28;20335;-63
2022/06/27 07:11:08;;;;;;;1.80;1.38;;;;;;;;;;4991384;28;20427;-63
2022/06/27 07:13:33;;;;;;;1.95;1.50;;;;;;;;;;4992147;28;20361;-62
2022/06/27 07:15:59;;;;;;;1.50;1.30;;;;;;;;;;4990800;28;20029;-63
2022/06/27 07:18:25;;;;;;;2.00;1.55;;;;;;;;;;4991401;28;20628;-65
2022/06/27 07:20:51;;;;;;;1.42;1.20;;;;;;;;;;4973934;28;20368;-62
2022/06/27 07:23:19;;;;;;;2.67;1.50;;;;;;;;;;4991088;28;20052;-63
2022/06/27 07:25:45;;;;;;;2.50;1.75;;;;;;;;;;4991495;28;20375;-62
2022/06/27 07:28:10;;;;;;;1.90;1.40;;;;;;;;;;4991086;28;20399;-63
2022/06/27 07:30:36;;;;;;;1.75;1.50;;;;;;;;;;4991703;28;20048;-63
2022/06/27 07:33:01;;;;;;;2.22;1.58;;;;;;;;;;4992812;28;20401;-62
2022/06/27 07:35:28;;;;;;;4.40;1.65;;;;;;;;;;4990897;28;20493;-62
2022/06/27 07:37:54;;;;;;;2.47;1.63;;;;;;;;;;4992246;28;20080;-62
2022/06/27 07:40:21;;;;;;;2.22;1.55;;;;;;;;;;4991258;28;20047;-62
2022/06/27 07:42:48;;;;;;;3.05;1.77;;;;;;;;;;4990859;28;20347;-63
2022/06/27 07:45:16;;;;;;;3.78;1.30;;;;;;;;;;4990706;28;20498;-62
2022/06/27 07:47:44;;;;;;;1.92;1.40;;;;;;;;;;4990571;28;20481;-62
2022/06/27 07:50:11;;;;;;;;;;;;;;;;;;4991047;28;20347;-62
2022/06/27 07:55:23;;;;;;;3.72;2.03;;;;;;;;;;4990617;28;20044;-61
2022/06/27 07:57:50;;;;;;;2.33;1.45;;;;;;;;;;4990643;28;20577;-62
2022/06/27 08:00:15;;;;;;;3.05;1.30;;;;;;;;;;4990659;28;20375;-61
2022/06/27 08:02:41;;;;;;;1.40;1.13;;;;;;;;;;4990577;28;20047;-62
2022/06/27 08:05:07;;;;;;;2.08;1.40;;;;;;;;;;4990856;28;20439;-62
2022/06/27 08:07:33;;;;;;;4.93;1.40;;;;;;;;;;4990645;28;20351;-62
2022/06/27 08:09:58;;;;;;;3.55;1.48;;;;;;;;;;4990424;28;20021;-63
2022/06/27 08:12:24;;;;;;;2.20;1.30;;;;;;;;;;4990324;28;20036;-63
2022/06/27 08:14:51;;;;;;;1.77;1.48;;;;;;;;;;4991216;28;20518;-62
2022/06/27 08:17:18;;;;;;;2.47;1.48;;;;;;;;;;4992039;28;20458;-62
2022/06/27 08:19:44;;;;;;;1.80;1.42;;;;;;;;;;4990399;28;20446;-62
2022/06/27 08:22:10;;;;;;;2.13;1.50;;;;;;;;;;4989599;28;20463;-62
2022/06/27 08:24:36;;;;;;;1.98;1.13;;;;;;;;;;4990194;28;20443;-62
2022/06/27 08:27:04;;;;;;;1.63;1.33;;;;;;;;;;4990364;28;20485;-62
2022/06/27 08:29:30;;;;;;;2.10;1.50;;;;;;;;;;4990102;28;20486;-64
2022/06/27 08:31:55;;;;;;;1.75;1.42;;;;;;;;;;4990223;28;20429;-62
2022/06/27 08:34:22;;;;;;;2.60;1.70;;;;;;;;;;4971984;28;20328;-62
2022/06/27 08:36:51;;;;;;;2.05;1.48;;;;;;;;;;4989298;28;20479;-63
2022/06/27 08:39:17;;;;;;;3.38;1.80;;;;;;;;;;4990406;28;20416;-63
2022/06/27 08:41:44;;;;;;;1.85;1.45;;;;;;;;;;4989602;28;20458;-62
2022/06/27 08:44:10;;;;;;;2.70;1.48;;;;;;;;;;4989043;28;20478;-62
2022/06/27 08:46:36;;;;;;;1.95;1.33;;;;;;;;;;4971933;28;20393;-62
2022/06/27 08:49:03;;;;;;;2.08;1.33;;;;;;;;;;4971725;28;20394;-62
2022/06/27 08:51:29;;;;;;;1.92;1.38;;;;;;;;;;4989382;28;20442;-62
2022/06/27 08:53:55;;;;;;;3.78;1.50;;;;;;;;;;4989603;28;20453;-62
2022/06/27 08:56:22;;;;;;;2.05;1.70;;;;;;;;;;4989360;28;20497;-62
2022/06/27 08:58:48;;;;;;;2.72;1.55;;;;;;;;;;4988516;28;20482;-61
2022/06/27 09:01:16;;;;;;;2.38;1.60;;;;;;;;;;4989343;28;20494;-62
2022/06/27 09:03:58;;;;;;;2.05;1.30;;;;;;;;;;4989001;28;20417;-61
2022/06/27 09:06:26;;;;;;;5.22;1.52;;;;;;;;;;4989509;28;20343;-62
2022/06/27 09:09:08;;;;;;;3.65;1.65;;;;;;;;;;4988999;28;20411;-62
2022/06/27 09:11:39;;;;;;;5.22;1.60;;;;;;;;;;4989275;28;20436;-62
2022/06/27 09:14:06;;;;;;;3.83;1.58;;;;;;;;;;4989233;28;20048;-62
2022/06/27 09:16:33;;;;;;;2.70;1.60;;;;;;;;;;4990117;28;20474;-62
2022/06/27 09:18:59;;;;;;;3.03;1.60;;;;;;;;;;4989541;28;20430;-62
2022/06/27 09:21:27;;;;;;;2.70;1.55;;;;;;;;;;4628266;28;10000269;-62
2022/06/27 09:23:54;;;;;;;2.38;1.80;;;;;;;;;;4989887;28;20073;-62
2022/06/27 09:26:25;;;;;;;1.90;1.40;;;;;;;;;;4989248;28;20037;-62
2022/06/27 09:28:56;;;;;;;2.45;1.67;;;;;;;;;;4989425;28;20041;-62
2022/06/27 09:31:25;;;;;;;1.67;1.40;;;;;;;;;;4988862;28;20363;-62
2022/06/27 09:34:26;;;;;;;7.15;1.30;;;;;;;;;;4988594;28;20032;-61
2022/06/27 09:36:54;;;;;;;2.65;1.75;;;;;;;;;;4989945;28;20482;-61
2022/06/27 09:39:31;;;;;;;1.70;1.27;;;;;;;;;;4989117;28;20489;-62
2022/06/27 09:41:59;;;;;;;2.47;1.57;;;;;;;;;;4988422;28;20029;-62
2022/06/27 09:44:39;;;;;;;1.70;1.30;;;;;;;;;;4989479;28;20417;-62
2022/06/27 09:47:19;;;;;;;5.65;1.30;;;;;;;;;;4988718;28;20091;-62
2022/06/27 09:49:50;;;;;;;1.98;1.63;;;;;;;;;;4991613;28;20305;-62
2022/06/27 09:52:20;;;;;;;2.17;1.80;;;;;;;;;;4992907;28;20510;-62
2022/06/27 09:54:48;;;;;;;1.52;1.20;;;;;;;;;;4992719;28;20386;-62
2022/06/27 09:57:15;;;;;;;2.15;1.80;;;;;;;;;;4992976;28;20174;-62
2022/06/27 09:59:41;;;;;;;1.48;1.38;;;;;;;;;;4992097;28;20428;-62
2022/06/27 10:02:07;;;;;;;2.38;1.50;;;;;;;;;;4992584;28;20467;-62
2022/06/27 10:04:35;;;;;;;2.95;1.90;;;;;;;;;;4992984;28;20351;-62
2022/06/27 10:07:02;;;;;;;2.40;1.73;;;;;;;;;;4992732;28;20378;-62
2022/06/27 10:09:32;;;;;;;1.92;1.40;;;;;;;;;;4993051;28;20509;-62
2022/06/27 10:12:22;;;;;;;4.10;1.77;;;;;;;;;;4974915;28;20435;-62
2022/06/27 10:15:06;;;;;;;2.08;1.45;;;;;;;;;;4992093;28;20543;-62
2022/06/27 10:17:34;;;;;;;1.65;1.55;;;;;;;;;;4992824;28;20505;-62
2022/06/27 10:20:02;;;;;;;1.27;1.17;;;;;;;;;;4990834;28;20462;-62
2022/06/27 10:22:27;;;;;;;1.70;1.50;;;;;;;;;;4973941;28;20497;-61
2022/06/27 10:24:53;;;;;;;1.85;1.40;;;;;;;;;;4992129;28;20451;-61
2022/06/27 10:27:29;;;;;;;2.42;1.70;;;;;;;;;;4993018;28;20060;-62
2022/06/27 10:29:55;;;;;;;3.25;1.63;;;;;;;;;;4992226;28;20430;-62
2022/06/27 10:32:35;;;;;;;2.15;1.70;;;;;;;;;;4992346;28;20029;-62
2022/06/27 10:35:04;;;;;;;2.30;1.50;;;;;;;;;;4992534;28;20489;-61
2022/06/27 10:37:29;;;;;;;2.20;1.60;;;;;;;;;;4991775;28;20343;-62
2022/06/27 10:40:17;;;;;;;3.33;1.85;;;;;;;;;;4991972;28;20340;-63
2022/06/27 10:42:53;;;;;;;2.05;1.65;;;;;;;;;;4991810;28;20481;-61
2022/06/27 10:45:21;;;;;;;3.08;1.63;;;;;;;;;;4992456;28;20319;-62
2022/06/27 10:47:52;;;;;;;1.65;1.30;;;;;;;;;;4991993;28;20407;-63
2022/06/27 10:50:19;;;;;;;2.10;1.42;;;;;;;;;;4991674;28;20339;-63
2022/06/27 10:52:45;;;;;;;3.53;1.60;;;;;;;;;;4991768;28;20447;-62
2022/06/27 10:55:27;;;;;;;2.40;1.70;;;;;;;;;;4991797;28;20435;-63
2022/06/27 10:57:54;;;;;;;1.95;1.73;;;;;;;;;;4992001;28;20386;-62
2022/06/27 11:00:41;;;;;;;1.77;1.40;;;;;;;;;;4989645;28;20424;-62
2022/06/27 11:03:23;;;;;;;2.30;1.53;;;;;;;;;;4991676;28;20510;-63
2022/06/27 11:05:52;;;;;;;3.20;1.73;;;;;;;;;;4991551;28;20062;-63
2022/06/27 11:08:20;;;;;;;2.88;1.80;;;;;;;;;;4991124;28;20039;-62
2022/06/27 11:10:45;;;;;;;2.30;1.63;;;;;;;;;;4991919;28;20477;-62
2022/06/27 11:13:37;;;;;;;4.10;1.40;;;;;;;;;;4991403;28;20838;-62
2022/06/27 11:16:04;;;;;;;1.25;1.13;;;;;;;;;;4991371;28;20092;-63
2022/06/27 11:18:42;;;;;;;3.13;1.85;;;;;;;;;;4991457;28;20107;-63
2022/06/27 11:21:08;;;;;;;;;;;;;;;;;;4991475;28;20466;-63
2022/06/27 11:23:49;;;;;;;1.90;1.42;;;;;;;;;;4991301;28;20282;-63
2022/06/27 11:26:14;;;;;;;1.80;1.42;;;;;;;;;;4990944;28;20421;-63
2022/06/27 11:34:09;;;;;;;2.00;1.33;;;;;;;;;;4992194;28;20439;-62
2022/06/27 11:36:35;;;;;;;2.22;1.52;;;;;;;;;;4991026;28;20417;-62
2022/06/27 11:39:00;;;;;;;1.75;1.40;;;;;;;;;;4992093;28;20111;-64
2022/06/27 11:41:30;;;;;;;2.50;1.45;;;;;;;;;;4991544;28;20427;-63
2022/06/27 11:44:00;;;;;;;1.83;1.30;;;;;;;;;;4990976;28;20374;-63
2022/06/27 11:46:33;;;;;;;1.30;1.17;;;;;;;;;;4991988;28;20107;-63
2022/06/27 11:48:58;;;;;;;1.33;1.20;;;;;;;;;;4991976;28;20343;-62
2022/06/27 11:51:27;;;;;;;3.75;1.38;;;;;;;;;;4990628;28;20036;-62
2022/06/27 11:53:57;;;;;;;1.90;1.65;;;;;;;;;;4990134;28;20033;-62
2022/06/27 11:56:25;;;;;;;1.60;1.13;;;;;;;;;;4989382;28;20051;-62
2022/06/27 11:58:55;;;;;;;1.30;1.10;;;;;;;;;;4990479;28;20028;-63
2022/06/27 12:01:22;;;;;;;1.85;1.30;;;;;;;;;;4990163;28;20401;-63
2022/06/27 12:04:13;;;;;;;2.28;1.60;;;;;;;;;;4990638;28;20378;-63
2022/06/27 12:06:49;;;;;;;2.00;1.20;;;;;;;;;;4991313;28;20459;-63
2022/06/27 12:09:14;;;;;;;2.17;1.30;;;;;;;;;;4991739;28;20482;-62
2022/06/27 12:11:57;;;;;;;1.23;1.13;;;;;;;;;;4990193;28;20088;-62
2022/06/27 12:14:22;;;;;;;1.52;1.27;;;;;;;;;;4991161;28;20308;-63
2022/06/27 12:16:53;;;;;;;1.90;1.45;;;;;;;;;;4991214;28;20390;-64
2022/06/27 12:19:19;;;;;;;1.75;1.45;;;;;;;;;;4991179;28;20489;-64
2022/06/27 12:21:45;;;;;;;3.03;1.33;;;;;;;;;;4990671;28;20406;-63
2022/06/27 12:24:11;;;;;;;1.98;1.40;;;;;;;;;;4989168;28;20028;-62
2022/06/27 12:26:37;;;;;;;2.42;1.30;;;;;;;;;;4989934;28;20469;-63
2022/06/27 12:29:03;;;;;;;2.78;1.50;;;;;;;;;;4990864;28;20304;-62
2022/06/27 12:31:29;;;;;;;2.13;1.52;;;;;;;;;;4989823;28;20523;-64
2022/06/27 12:33:54;;;;;;;2.83;1.10;;;;;;;;;;4988921;28;20323;-63
2022/06/27 12:36:20;;;;;;;1.75;1.38;;;;;;;;;;4990523;28;20462;-62
2022/06/27 12:38:45;;;;;;;1.65;1.40;;;;;;;;;;4990181;28;20124;-62
2022/06/27 12:41:16;;;;;;;1.67;1.40;;;;;;;;;;4991032;28;20178;-63
2022/06/27 12:43:44;;;;;;;1.95;1.55;;;;;;;;;;4990018;28;20396;-62
2022/06/27 12:46:10;;;;;;;1.50;1.37;;;;;;;;;;4990453;28;20407;-63
2022/06/27 12:48:39;;;;;;;1.85;1.55;;;;;;;;;;4989561;28;20745;-62
2022/06/27 12:51:04;;;;;;;;;;;;;;;;;;4990110;28;20539;-62
2022/06/27 12:53:30;;;;;;;1.83;1.35;;;;;;;;;;4989304;28;20303;-62
2022/06/27 12:55:57;;;;;;;1.92;1.42;;;;;;;;;;4989373;28;20343;-62
2022/06/27 12:58:24;;;;;;;2.20;1.40;;;;;;;;;;4972744;28;20416;-62
2022/06/27 13:00:49;;;;;;;2.33;1.83;;;;;;;;;;4989401;28;20428;-62
2022/06/27 13:03:14;;;;;;;1.58;1.27;;;;;;;;;;4989361;28;20465;-63
2022/06/27 13:05:40;;;;;;;2.47;1.50;;;;;;;;;;4989372;28;20497;-62
2022/06/27 13:08:06;;;;;;;3.15;1.70;;;;;;;;;;4989592;28;20317;-63
2022/06/27 13:10:31;;;;;;;2.13;1.50;;;;;;;;;;4989063;28;20734;-62
2022/06/27 13:12:57;;;;;;;1.35;1.20;;;;;;;;;;4988996;28;20309;-63
2022/06/27 13:15:22;;;;;;;1.80;1.45;;;;;;;;;;4987736;28;20411;-62
2022/06/27 13:17:48;;;;;;;5.13;1.35;;;;;;;;;;4988823;28;20051;-62
2022/06/27 13:20:13;;;;;;;1.58;1.35;;;;;;;;;;4989119;28;20344;-62
2022/06/27 13:22:39;;;;;;;2.35;1.45;;;;;;;;;;4988761;28;20407;-62
2022/06/27 13:25:05;;;;;;;2.03;1.60;;;;;;;;;;4988651;28;20439;-62
2022/06/27 13:27:31;;;;;;;3.45;1.38;;;;;;;;;;4988963;28;20037;-62
2022/06/27 13:29:56;;;;;;;2.30;1.60;;;;;;;;;;4990298;28;20033;-62
2022/06/27 13:32:22;;;;;;;2.97;1.70;;;;;;;;;;4988858;28;20462;-62
2022/06/27 13:34:47;;;;;;;2.40;2.00;;;;;;;;;;4971470;28;20372;-62
2022/06/27 13:37:13;;;;;;;3.05;1.95;;;;;;;;;;4971908;28;20463;-63
2022/06/27 13:39:38;;;;;;;2.55;1.73;;;;;;;;;;4970309;28;20359;-62
2022/06/27 13:42:04;;;;;;;3.83;1.85;;;;;;;;;;4967315;28;20404;-62
2022/06/27 13:44:32;;;;;;;2.33;1.70;;;;;;;;;;4967327;28;20514;-62
2022/06/27 13:46:58;;;;;;;4.00;1.80;;;;;;;;;;4968467;28;20052;-62
2022/06/27 13:49:23;;;;;;;4.93;1.33;;;;;;;;;;4970464;28;20371;-62
2022/06/27 13:51:49;;;;;;;9.57;1.73;;;;;;;;;;4968778;28;20352;-62
2022/06/27 13:54:14;;;;;;;3.58;1.90;;;;;;;;;;4969703;28;20467;-62
2022/06/27 13:56:39;;;;;;;4.25;1.92;;;;;;;;;;4969076;28;20105;-62
2022/06/27 13:59:05;;;;;;;3.70;1.83;;;;;;;;;;4969346;28;20339;-62
2022/06/27 14:01:30;;;;;;;4.75;2.08;;;;;;;;;;4968968;28;20037;-62
2022/06/27 14:03:56;;;;;;;2.85;1.90;;;;;;;;;;4968907;28;20061;-64
2022/06/27 14:09:05;;;;;;;3.47;1.90;;;;;;;;;;4970646;28;20057;-61
2022/06/27 14:11:31;;;;;;;3.70;1.77;;;;;;;;;;4968993;28;20034;-63
2022/06/27 14:13:56;;;;;;;4.30;2.15;;;;;;;;;;4969816;28;20408;-62
2022/06/27 14:16:23;;;;;;;3.42;1.70;;;;;;;;;;4969029;28;20481;-62
2022/06/27 14:18:49;;;;;;;3.42;2.00;;;;;;;;;;4969269;28;20335;-61
2022/06/27 14:21:15;;;;;;;2.88;1.98;;;;;;;;;;4968015;28;20352;-62
2022/06/27 14:23:40;;;;;;;5.13;2.00;;;;;;;;;;4969051;28;20361;-62
2022/06/27 14:26:06;;;;;;;2.75;1.90;;;;;;;;;;4969167;28;20089;-62
2022/06/27 14:28:32;;;;;;;4.57;1.88;;;;;;;;;;4968891;28;20056;-62
2022/06/27 14:30:58;;;;;;;2.70;1.83;;;;;;;;;;4959797;28;20424;-65
2022/06/27 14:33:24;;;;;;;1.90;1.70;;;;;;;;;;4968939;28;20386;-62
2022/06/27 14:35:50;;;;;;;2.85;1.88;;;;;;;;;;4969021;28;20467;-62
2022/06/27 14:38:16;;;;;;;2.10;1.90;;;;;;;;;;4973151;28;20534;-62
2022/06/27 14:40:41;;;;;;;5.75;1.85;;;;;;;;;;4973397;28;20513;-62
2022/06/27 14:43:07;;;;;;;2.33;1.55;;;;;;;;;;4973664;28;20494;-62
2022/06/27 14:45:32;;;;;;;3.22;1.77;;;;;;;;;;4972040;28;20057;-62
2022/06/27 14:47:58;;;;;;;2.30;1.77;;;;;;;;;;4972544;28;20430;-62
2022/06/27 14:50:23;;;;;;;3.38;2.08;;;;;;;;;;4966376;28;20430;-62
2022/06/27 14:52:49;;;;;;;2.72;1.90;;;;;;;;;;4972058;28;20356;-62
2022/06/27 14:55:14;;;;;;;2.20;1.73;;;;;;;;;;4971546;28;20442;-61